sensor_id;sensor_type;location;lat;lon;timestamp;temperature;humidity
9913;DHT22;41380;52.548;13.344;2022-08-02T00:00:54;18.90;97.80
9913;DHT22;41380;52.548;13.344;2022-08-02T00:03:23;18.90;97.70
9913;DHT22;41380;52.548;13.344;2022-08-02T00:05:50;18.90;97.60
9913;DHT22;41380;52.548;13.344;2022-08-02T00:08:16;18.90;97.70
9913;DHT22;41380;52.548;13.344;2022-08-02T00:10:43;19.00;97.50
9913;DHT22;41380;52.548;13.344;2022-08-02T00:13:10;19.10;97.30
9913;DHT22;41380;52.548;13.344;2022-08-02T00:15:37;19.10;97.40
9913;DHT22;41380;52.548;13.344;2022-08-02T00:18:04;19.10;97.50
9913;DHT22;41380;52.548;13.344;2022-08-02T00:20:32;19.00;97.60
9913;DHT22;41380;52.548;13.344;2022-08-02T00:22:59;19.00;97.70
9913;DHT22;41380;52.548;13.344;2022-08-02T00:25:26;19.00;97.60
9913;DHT22;41380;52.548;13.344;2022-08-02T00:27:53;19.10;97.60
9913;DHT22;41380;52.548;13.344;2022-08-02T00:30:20;19.10;97.60
9913;DHT22;41380;52.548;13.344;2022-08-02T00:32:47;19.20;97.60
9913;DHT22;41380;52.548;13.344;2022-08-02T00:35:13;19.30;97.30
9913;DHT22;41380;52.548;13.344;2022-08-02T00:37:42;19.30;97.20
9913;DHT22;41380;52.548;13.344;2022-08-02T00:40:10;19.30;97.20
9913;DHT22;41380;52.548;13.344;2022-08-02T00:42:37;19.30;97.20
9913;DHT22;41380;52.548;13.344;2022-08-02T00:45:05;19.30;97.20
9913;DHT22;41380;52.548;13.344;2022-08-02T00:47:32;19.30;96.90
9913;DHT22;41380;52.548;13.344;2022-08-02T00:49:59;19.30;96.90
9913;DHT22;41380;52.548;13.344;2022-08-02T00:52:26;19.30;94.60
9913;DHT22;41380;52.548;13.344;2022-08-02T00:54:54;19.30;94.50
9913;DHT22;41380;52.548;13.344;2022-08-02T00:57:21;19.30;94.30
9913;DHT22;41380;52.548;13.344;2022-08-02T00:59:47;19.30;94.00
9913;DHT22;41380;52.548;13.344;2022-08-02T01:02:14;19.30;93.90
9913;DHT22;41380;52.548;13.344;2022-08-02T01:04:41;19.30;93.70
9913;DHT22;41380;52.548;13.344;2022-08-02T01:07:08;19.30;93.30
9913;DHT22;41380;52.548;13.344;2022-08-02T01:09:35;19.30;93.40
9913;DHT22;41380;52.548;13.344;2022-08-02T01:12:03;19.30;93.20
9913;DHT22;41380;52.548;13.344;2022-08-02T01:14:30;19.40;93.30
9913;DHT22;41380;52.548;13.344;2022-08-02T01:17:02;19.30;93.30
9913;DHT22;41380;52.548;13.344;2022-08-02T01:19:37;19.30;93.50
9913;DHT22;41380;52.548;13.344;2022-08-02T01:22:26;19.30;93.50
9913;DHT22;41380;52.548;13.344;2022-08-02T01:25:11;19.20;93.40
9913;DHT22;41380;52.548;13.344;2022-08-02T01:27:50;19.30;93.40
9913;DHT22;41380;52.548;13.344;2022-08-02T01:30:21;19.30;93.40
9913;DHT22;41380;52.548;13.344;2022-08-02T01:32:54;19.30;93.30
9913;DHT22;41380;52.548;13.344;2022-08-02T01:35:27;19.30;93.20
9913;DHT22;41380;52.548;13.344;2022-08-02T01:38:00;19.20;93.20
9913;DHT22;41380;52.548;13.344;2022-08-02T01:40:33;19.20;93.20
9913;DHT22;41380;52.548;13.344;2022-08-02T01:43:01;19.10;93.00
9913;DHT22;41380;52.548;13.344;2022-08-02T01:45:32;19.10;92.90
9913;DHT22;41380;52.548;13.344;2022-08-02T01:48:00;19.10;92.80
9913;DHT22;41380;52.548;13.344;2022-08-02T01:50:32;19.10;92.50
9913;DHT22;41380;52.548;13.344;2022-08-02T01:53:02;19.10;92.60
9913;DHT22;41380;52.548;13.344;2022-08-02T01:55:33;19.00;92.40
9913;DHT22;41380;52.548;13.344;2022-08-02T01:58:02;19.10;92.20
9913;DHT22;41380;52.548;13.344;2022-08-02T02:00:35;19.10;91.90
9913;DHT22;41380;52.548;13.344;2022-08-02T02:03:05;19.10;92.10
9913;DHT22;41380;52.548;13.344;2022-08-02T02:05:35;19.00;92.20
9913;DHT22;41380;52.548;13.344;2022-08-02T02:08:05;19.00;92.20
9913;DHT22;41380;52.548;13.344;2022-08-02T02:10:34;18.90;91.80
9913;DHT22;41380;52.548;13.344;2022-08-02T02:13:05;19.00;91.80
9913;DHT22;41380;52.548;13.344;2022-08-02T02:15:37;19.00;91.60
9913;DHT22;41380;52.548;13.344;2022-08-02T02:18:07;19.00;91.50
9913;DHT22;41380;52.548;13.344;2022-08-02T02:20:36;19.00;91.70
9913;DHT22;41380;52.548;13.344;2022-08-02T02:23:03;19.00;91.80
9913;DHT22;41380;52.548;13.344;2022-08-02T02:25:30;19.00;91.90
9913;DHT22;41380;52.548;13.344;2022-08-02T02:28:01;18.90;91.90
9913;DHT22;41380;52.548;13.344;2022-08-02T02:30:30;18.90;91.90
9913;DHT22;41380;52.548;13.344;2022-08-02T02:33:05;18.80;91.70
9913;DHT22;41380;52.548;13.344;2022-08-02T02:35:35;18.90;91.70
9913;DHT22;41380;52.548;13.344;2022-08-02T02:38:07;18.90;91.60
9913;DHT22;41380;52.548;13.344;2022-08-02T02:40:36;18.90;91.70
9913;DHT22;41380;52.548;13.344;2022-08-02T02:43:05;18.90;91.80
9913;DHT22;41380;52.548;13.344;2022-08-02T02:45:34;18.90;91.80
9913;DHT22;41380;52.548;13.344;2022-08-02T02:48:05;18.90;91.90
9913;DHT22;41380;52.548;13.344;2022-08-02T02:50:33;18.80;92.00
9913;DHT22;41380;52.548;13.344;2022-08-02T02:53:00;18.80;92.20
9913;DHT22;41380;52.548;13.344;2022-08-02T02:55:28;18.70;92.30
9913;DHT22;41380;52.548;13.344;2022-08-02T02:57:55;18.70;92.40
9913;DHT22;41380;52.548;13.344;2022-08-02T03:00:23;18.60;92.60
9913;DHT22;41380;52.548;13.344;2022-08-02T03:03:06;18.50;93.00
9913;DHT22;41380;52.548;13.344;2022-08-02T03:05:33;18.30;93.50
9913;DHT22;41380;52.548;13.344;2022-08-02T03:08:00;18.20;94.20
9913;DHT22;41380;52.548;13.344;2022-08-02T03:10:27;18.10;94.90
9913;DHT22;41380;52.548;13.344;2022-08-02T03:12:54;17.90;95.50
9913;DHT22;41380;52.548;13.344;2022-08-02T03:15:23;17.80;96.30
9913;DHT22;41380;52.548;13.344;2022-08-02T03:17:52;17.70;96.70
9913;DHT22;41380;52.548;13.344;2022-08-02T03:20:20;17.70;97.00
9913;DHT22;41380;52.548;13.344;2022-08-02T03:22:48;17.60;97.00
9913;DHT22;41380;52.548;13.344;2022-08-02T03:25:16;17.60;97.20
9913;DHT22;41380;52.548;13.344;2022-08-02T03:27:43;17.50;97.50
9913;DHT22;41380;52.548;13.344;2022-08-02T03:30:12;17.40;97.70
9913;DHT22;41380;52.548;13.344;2022-08-02T03:32:40;17.30;98.00
9913;DHT22;41380;52.548;13.344;2022-08-02T03:35:10;17.30;98.60
9913;DHT22;41380;52.548;13.344;2022-08-02T03:37:39;17.20;98.90
9913;DHT22;41380;52.548;13.344;2022-08-02T03:40:09;17.20;99.10
9913;DHT22;41380;52.548;13.344;2022-08-02T03:42:38;17.10;99.20
9913;DHT22;41380;52.548;13.344;2022-08-02T03:45:08;17.10;99.70
9913;DHT22;41380;52.548;13.344;2022-08-02T03:47:37;17.00;99.90
9913;DHT22;41380;52.548;13.344;2022-08-02T03:50:05;17.00;99.90
9913;DHT22;41380;52.548;13.344;2022-08-02T03:52:33;16.90;99.90
9913;DHT22;41380;52.548;13.344;2022-08-02T03:55:01;17.00;99.90
9913;DHT22;41380;52.548;13.344;2022-08-02T03:57:28;17.10;99.90
9913;DHT22;41380;52.548;13.344;2022-08-02T03:59:56;17.20;99.90
9913;DHT22;41380;52.548;13.344;2022-08-02T04:02:23;17.40;99.90
9913;DHT22;41380;52.548;13.344;2022-08-02T04:04:49;17.50;99.90
9913;DHT22;41380;52.548;13.344;2022-08-02T04:07:16;17.60;99.90
9913;DHT22;41380;52.548;13.344;2022-08-02T04:09:43;17.60;99.90
9913;DHT22;41380;52.548;13.344;2022-08-02T04:12:12;17.70;99.90
9913;DHT22;41380;52.548;13.344;2022-08-02T04:14:38;17.70;99.60
9913;DHT22;41380;52.548;13.344;2022-08-02T04:17:08;17.70;99.80
9913;DHT22;41380;52.548;13.344;2022-08-02T04:19:39;17.60;99.40
9913;DHT22;41380;52.548;13.344;2022-08-02T04:22:13;17.60;99.70
9913;DHT22;41380;52.548;13.344;2022-08-02T04:24:44;17.60;99.80
9913;DHT22;41380;52.548;13.344;2022-08-02T04:27:13;17.50;99.80
9913;DHT22;41380;52.548;13.344;2022-08-02T04:29:41;17.50;99.90
9913;DHT22;41380;52.548;13.344;2022-08-02T04:32:09;17.50;99.90
9913;DHT22;41380;52.548;13.344;2022-08-02T04:34:36;17.40;99.90
9913;DHT22;41380;52.548;13.344;2022-08-02T04:37:04;17.40;99.90
9913;DHT22;41380;52.548;13.344;2022-08-02T04:39:31;17.50;99.90
9913;DHT22;41380;52.548;13.344;2022-08-02T04:41:58;17.50;99.90
9913;DHT22;41380;52.548;13.344;2022-08-02T04:44:26;17.60;99.80
9913;DHT22;41380;52.548;13.344;2022-08-02T04:46:54;17.60;99.50
9913;DHT22;41380;52.548;13.344;2022-08-02T04:49:21;17.80;99.50
9913;DHT22;41380;52.548;13.344;2022-08-02T04:51:48;17.90;99.20
9913;DHT22;41380;52.548;13.344;2022-08-02T04:54:15;18.10;98.60
9913;DHT22;41380;52.548;13.344;2022-08-02T04:56:42;18.20;98.20
9913;DHT22;41380;52.548;13.344;2022-08-02T04:59:09;18.20;97.80
9913;DHT22;41380;52.548;13.344;2022-08-02T05:01:38;18.20;97.50
9913;DHT22;41380;52.548;13.344;2022-08-02T05:04:07;18.30;97.40
9913;DHT22;41380;52.548;13.344;2022-08-02T05:06:33;18.30;97.30
9913;DHT22;41380;52.548;13.344;2022-08-02T05:09:00;18.30;97.00
9913;DHT22;41380;52.548;13.344;2022-08-02T05:11:27;18.40;97.00
9913;DHT22;41380;52.548;13.344;2022-08-02T05:13:54;18.40;96.80
9913;DHT22;41380;52.548;13.344;2022-08-02T05:16:21;18.50;96.00
9913;DHT22;41380;52.548;13.344;2022-08-02T05:18:51;18.50;95.80
9913;DHT22;41380;52.548;13.344;2022-08-02T05:21:18;18.60;95.50
9913;DHT22;41380;52.548;13.344;2022-08-02T05:23:45;18.60;94.90
9913;DHT22;41380;52.548;13.344;2022-08-02T05:26:13;18.70;93.30
9913;DHT22;41380;52.548;13.344;2022-08-02T05:28:40;18.70;92.60
9913;DHT22;41380;52.548;13.344;2022-08-02T05:31:07;18.90;92.70
9913;DHT22;41380;52.548;13.344;2022-08-02T05:33:34;19.00;92.50
9913;DHT22;41380;52.548;13.344;2022-08-02T05:36:03;19.10;92.20
9913;DHT22;41380;52.548;13.344;2022-08-02T05:38:30;19.40;91.80
9913;DHT22;41380;52.548;13.344;2022-08-02T05:40:57;19.60;91.40
9913;DHT22;41380;52.548;13.344;2022-08-02T05:43:24;19.70;91.60
9913;DHT22;41380;52.548;13.344;2022-08-02T05:45:51;19.80;91.30
9913;DHT22;41380;52.548;13.344;2022-08-02T05:48:19;19.90;91.50
9913;DHT22;41380;52.548;13.344;2022-08-02T05:50:48;20.00;91.00
9913;DHT22;41380;52.548;13.344;2022-08-02T05:53:23;20.10;89.50
9913;DHT22;41380;52.548;13.344;2022-08-02T05:56:02;20.20;88.20
9913;DHT22;41380;52.548;13.344;2022-08-02T05:58:37;20.50;88.10
9913;DHT22;41380;52.548;13.344;2022-08-02T06:01:10;21.60;87.90
9913;DHT22;41380;52.548;13.344;2022-08-02T06:03:43;22.90;83.90
9913;DHT22;41380;52.548;13.344;2022-08-02T06:06:19;24.40;80.40
9913;DHT22;41380;52.548;13.344;2022-08-02T06:08:53;26.00;75.30
9913;DHT22;41380;52.548;13.344;2022-08-02T06:11:22;27.10;71.20
9913;DHT22;41380;52.548;13.344;2022-08-02T06:13:50;28.10;68.30
9913;DHT22;41380;52.548;13.344;2022-08-02T06:16:18;28.80;65.30
9913;DHT22;41380;52.548;13.344;2022-08-02T06:18:45;29.60;63.00
9913;DHT22;41380;52.548;13.344;2022-08-02T06:21:14;29.50;62.80
9913;DHT22;41380;52.548;13.344;2022-08-02T06:23:41;29.90;61.90
9913;DHT22;41380;52.548;13.344;2022-08-02T06:26:12;30.40;61.50
9913;DHT22;41380;52.548;13.344;2022-08-02T06:28:40;30.90;59.80
9913;DHT22;41380;52.548;13.344;2022-08-02T06:31:12;31.50;58.70
9913;DHT22;41380;52.548;13.344;2022-08-02T06:33:40;32.40;57.70
9913;DHT22;41380;52.548;13.344;2022-08-02T06:36:09;33.20;56.40
9913;DHT22;41380;52.548;13.344;2022-08-02T06:38:40;33.50;55.40
9913;DHT22;41380;52.548;13.344;2022-08-02T06:41:09;34.20;53.60
9913;DHT22;41380;52.548;13.344;2022-08-02T06:43:44;34.40;52.40
9913;DHT22;41380;52.548;13.344;2022-08-02T06:46:13;34.30;52.00
9913;DHT22;41380;52.548;13.344;2022-08-02T06:48:40;34.50;51.60
9913;DHT22;41380;52.548;13.344;2022-08-02T06:51:07;34.90;51.50
9913;DHT22;41380;52.548;13.344;2022-08-02T06:53:38;35.00;50.70
9913;DHT22;41380;52.548;13.344;2022-08-02T06:56:05;34.90;50.70
9913;DHT22;41380;52.548;13.344;2022-08-02T06:58:32;35.50;49.80
9913;DHT22;41380;52.548;13.344;2022-08-02T07:01:00;35.90;48.80
9913;DHT22;41380;52.548;13.344;2022-08-02T07:03:32;36.10;48.30
9913;DHT22;41380;52.548;13.344;2022-08-02T07:05:59;35.90;48.30
9913;DHT22;41380;52.548;13.344;2022-08-02T07:08:26;36.00;48.10
9913;DHT22;41380;52.548;13.344;2022-08-02T07:10:57;35.80;47.80
9913;DHT22;41380;52.548;13.344;2022-08-02T07:13:25;35.50;48.40
9913;DHT22;41380;52.548;13.344;2022-08-02T07:15:52;35.00;48.90
9913;DHT22;41380;52.548;13.344;2022-08-02T07:18:21;34.40;49.50
9913;DHT22;41380;52.548;13.344;2022-08-02T07:20:48;33.80;50.50
9913;DHT22;41380;52.548;13.344;2022-08-02T07:23:15;33.50;50.80
9913;DHT22;41380;52.548;13.344;2022-08-02T07:25:43;33.60;50.80
9913;DHT22;41380;52.548;13.344;2022-08-02T07:28:13;33.30;50.70
9913;DHT22;41380;52.548;13.344;2022-08-02T07:30:40;33.40;51.00
9913;DHT22;41380;52.548;13.344;2022-08-02T07:33:08;33.20;50.70
9913;DHT22;41380;52.548;13.344;2022-08-02T07:35:37;32.80;51.10
9913;DHT22;41380;52.548;13.344;2022-08-02T07:38:04;31.90;52.10
9913;DHT22;41380;52.548;13.344;2022-08-02T07:40:31;30.50;53.40
9913;DHT22;41380;52.548;13.344;2022-08-02T07:42:58;29.50;55.80
9913;DHT22;41380;52.548;13.344;2022-08-02T07:45:26;28.60;57.60
9913;DHT22;41380;52.548;13.344;2022-08-02T07:47:53;27.80;58.80
9913;DHT22;41380;52.548;13.344;2022-08-02T07:50:21;27.10;59.60
9913;DHT22;41380;52.548;13.344;2022-08-02T07:52:49;26.60;61.50
9913;DHT22;41380;52.548;13.344;2022-08-02T07:55:16;26.10;62.10
9913;DHT22;41380;52.548;13.344;2022-08-02T07:57:44;25.60;63.10
9913;DHT22;41380;52.548;13.344;2022-08-02T08:00:11;25.20;64.10
9913;DHT22;41380;52.548;13.344;2022-08-02T08:02:40;24.80;64.70
9913;DHT22;41380;52.548;13.344;2022-08-02T08:05:08;24.50;66.90
9913;DHT22;41380;52.548;13.344;2022-08-02T08:07:35;24.30;66.40
9913;DHT22;41380;52.548;13.344;2022-08-02T08:10:04;24.10;67.30
9913;DHT22;41380;52.548;13.344;2022-08-02T08:12:31;24.00;67.50
9913;DHT22;41380;52.548;13.344;2022-08-02T08:14:58;23.90;67.20
9913;DHT22;41380;52.548;13.344;2022-08-02T08:17:26;23.80;68.10
9913;DHT22;41380;52.548;13.344;2022-08-02T08:19:53;23.70;68.20
9913;DHT22;41380;52.548;13.344;2022-08-02T08:22:20;23.70;68.50
9913;DHT22;41380;52.548;13.344;2022-08-02T08:24:47;23.60;68.80
9913;DHT22;41380;52.548;13.344;2022-08-02T08:27:16;23.60;68.50
9913;DHT22;41380;52.548;13.344;2022-08-02T08:29:44;23.60;68.60
9913;DHT22;41380;52.548;13.344;2022-08-02T08:32:12;23.60;68.30
9913;DHT22;41380;52.548;13.344;2022-08-02T08:34:39;23.60;68.30
9913;DHT22;41380;52.548;13.344;2022-08-02T08:37:06;23.60;68.30
9913;DHT22;41380;52.548;13.344;2022-08-02T08:39:33;23.70;69.30
9913;DHT22;41380;52.548;13.344;2022-08-02T08:42:01;23.70;68.70
9913;DHT22;41380;52.548;13.344;2022-08-02T08:44:33;23.80;68.30
9913;DHT22;41380;52.548;13.344;2022-08-02T08:47:00;23.80;68.90
9913;DHT22;41380;52.548;13.344;2022-08-02T08:49:31;24.00;68.60
9913;DHT22;41380;52.548;13.344;2022-08-02T08:52:02;24.00;67.50
9913;DHT22;41380;52.548;13.344;2022-08-02T08:54:31;24.10;67.60
9913;DHT22;41380;52.548;13.344;2022-08-02T08:57:01;24.20;67.80
9913;DHT22;41380;52.548;13.344;2022-08-02T08:59:29;24.10;67.90
9913;DHT22;41380;52.548;13.344;2022-08-02T09:01:58;24.20;68.60
9913;DHT22;41380;52.548;13.344;2022-08-02T09:04:25;24.20;68.30
9913;DHT22;41380;52.548;13.344;2022-08-02T09:06:52;24.30;68.10
9913;DHT22;41380;52.548;13.344;2022-08-02T09:09:20;24.30;67.60
9913;DHT22;41380;52.548;13.344;2022-08-02T09:11:47;24.50;67.90
9913;DHT22;41380;52.548;13.344;2022-08-02T09:14:25;24.50;67.70
9913;DHT22;41380;52.548;13.344;2022-08-02T09:16:52;24.50;67.40
9913;DHT22;41380;52.548;13.344;2022-08-02T09:19:23;24.60;67.90
9913;DHT22;41380;52.548;13.344;2022-08-02T09:21:59;24.80;67.30
9913;DHT22;41380;52.548;13.344;2022-08-02T09:24:26;24.80;67.30
9913;DHT22;41380;52.548;13.344;2022-08-02T09:26:53;25.00;66.90
9913;DHT22;41380;52.548;13.344;2022-08-02T09:29:22;25.10;66.60
9913;DHT22;41380;52.548;13.344;2022-08-02T09:31:50;25.20;66.90
9913;DHT22;41380;52.548;13.344;2022-08-02T09:34:17;25.30;67.00
9913;DHT22;41380;52.548;13.344;2022-08-02T09:36:46;25.40;65.80
9913;DHT22;41380;52.548;13.344;2022-08-02T09:39:14;25.40;65.60
9913;DHT22;41380;52.548;13.344;2022-08-02T09:41:43;25.40;65.60
9913;DHT22;41380;52.548;13.344;2022-08-02T09:44:11;25.40;65.50
9913;DHT22;41380;52.548;13.344;2022-08-02T09:46:40;25.60;65.70
9913;DHT22;41380;52.548;13.344;2022-08-02T09:49:08;25.60;65.30
9913;DHT22;41380;52.548;13.344;2022-08-02T09:51:38;25.70;65.70
9913;DHT22;41380;52.548;13.344;2022-08-02T09:54:08;25.80;64.60
9913;DHT22;41380;52.548;13.344;2022-08-02T09:56:43;26.10;64.30
9913;DHT22;41380;52.548;13.344;2022-08-02T09:59:10;26.40;64.80
9913;DHT22;41380;52.548;13.344;2022-08-02T10:01:38;26.70;64.30
9913;DHT22;41380;52.548;13.344;2022-08-02T10:04:08;27.00;63.00
9913;DHT22;41380;52.548;13.344;2022-08-02T10:06:36;27.10;62.30
9913;DHT22;41380;52.548;13.344;2022-08-02T10:09:03;27.00;62.00
9913;DHT22;41380;52.548;13.344;2022-08-02T10:11:31;27.00;62.20
9913;DHT22;41380;52.548;13.344;2022-08-02T10:14:02;27.10;62.40
9913;DHT22;41380;52.548;13.344;2022-08-02T10:16:32;27.10;61.70
9913;DHT22;41380;52.548;13.344;2022-08-02T10:19:00;27.00;61.80
9913;DHT22;41380;52.548;13.344;2022-08-02T10:21:32;27.00;61.80
9913;DHT22;41380;52.548;13.344;2022-08-02T10:24:05;27.00;61.80
9913;DHT22;41380;52.548;13.344;2022-08-02T10:26:34;27.10;60.90
9913;DHT22;41380;52.548;13.344;2022-08-02T10:29:02;27.40;60.70
9913;DHT22;41380;52.548;13.344;2022-08-02T10:31:33;27.80;60.70
9913;DHT22;41380;52.548;13.344;2022-08-02T10:34:02;27.70;60.70
9913;DHT22;41380;52.548;13.344;2022-08-02T10:36:31;27.70;60.50
9913;DHT22;41380;52.548;13.344;2022-08-02T10:39:00;27.50;60.50
9913;DHT22;41380;52.548;13.344;2022-08-02T10:41:42;27.60;61.20
9913;DHT22;41380;52.548;13.344;2022-08-02T10:44:26;27.70;61.40
9913;DHT22;41380;52.548;13.344;2022-08-02T10:47:21;27.80;60.60
9913;DHT22;41380;52.548;13.344;2022-08-02T10:49:50;28.00;60.30
9913;DHT22;41380;52.548;13.344;2022-08-02T10:52:17;27.70;60.10
9913;DHT22;41380;52.548;13.344;2022-08-02T10:54:48;27.60;60.10
9913;DHT22;41380;52.548;13.344;2022-08-02T10:57:19;27.60;60.70
9913;DHT22;41380;52.548;13.344;2022-08-02T10:59:49;27.70;60.70
9913;DHT22;41380;52.548;13.344;2022-08-02T11:02:36;27.70;60.20
9913;DHT22;41380;52.548;13.344;2022-08-02T11:05:09;27.60;60.60
9913;DHT22;41380;52.548;13.344;2022-08-02T11:07:39;27.50;61.10
9913;DHT22;41380;52.548;13.344;2022-08-02T11:10:32;27.40;60.40
9913;DHT22;41380;52.548;13.344;2022-08-02T11:13:18;27.30;60.90
9913;DHT22;41380;52.548;13.344;2022-08-02T11:15:54;27.10;60.70
9913;DHT22;41380;52.548;13.344;2022-08-02T11:19:01;27.00;61.10
9913;DHT22;41380;52.548;13.344;2022-08-02T11:21:30;27.00;60.80
9913;DHT22;41380;52.548;13.344;2022-08-02T11:24:25;26.80;61.30
9913;DHT22;41380;52.548;13.344;2022-08-02T11:26:54;26.80;61.30
9913;DHT22;41380;52.548;13.344;2022-08-02T11:29:30;26.70;61.90
9913;DHT22;41380;52.548;13.344;2022-08-02T11:32:00;26.70;61.50
9913;DHT22;41380;52.548;13.344;2022-08-02T11:34:27;26.70;61.70
9913;DHT22;41380;52.548;13.344;2022-08-02T11:36:56;26.80;61.60
9913;DHT22;41380;52.548;13.344;2022-08-02T11:39:24;26.80;61.60
9913;DHT22;41380;52.548;13.344;2022-08-02T11:41:53;26.70;62.10
9913;DHT22;41380;52.548;13.344;2022-08-02T11:44:21;26.80;62.10
9913;DHT22;41380;52.548;13.344;2022-08-02T11:46:55;26.90;61.70
9913;DHT22;41380;52.548;13.344;2022-08-02T11:49:23;26.90;61.80
9913;DHT22;41380;52.548;13.344;2022-08-02T11:51:55;26.90;61.50
9913;DHT22;41380;52.548;13.344;2022-08-02T11:54:25;26.80;61.50
9913;DHT22;41380;52.548;13.344;2022-08-02T11:56:53;26.70;62.50
9913;DHT22;41380;52.548;13.344;2022-08-02T11:59:21;26.70;62.10
9913;DHT22;41380;52.548;13.344;2022-08-02T12:01:48;26.70;62.50
9913;DHT22;41380;52.548;13.344;2022-08-02T12:04:17;26.80;61.50
9913;DHT22;41380;52.548;13.344;2022-08-02T12:06:53;26.80;60.50
9913;DHT22;41380;52.548;13.344;2022-08-02T12:09:20;26.80;61.00
9913;DHT22;41380;52.548;13.344;2022-08-02T12:11:49;26.90;60.80
9913;DHT22;41380;52.548;13.344;2022-08-02T12:14:16;26.90;59.20
9913;DHT22;41380;52.548;13.344;2022-08-02T12:16:45;26.90;58.20
9913;DHT22;41380;52.548;13.344;2022-08-02T12:19:30;27.00;57.30
9913;DHT22;41380;52.548;13.344;2022-08-02T12:22:18;27.00;57.50
9913;DHT22;41380;52.548;13.344;2022-08-02T12:24:47;27.00;58.50
9913;DHT22;41380;52.548;13.344;2022-08-02T12:27:31;26.90;58.50
9913;DHT22;41380;52.548;13.344;2022-08-02T12:30:01;27.00;58.40
9913;DHT22;41380;52.548;13.344;2022-08-02T12:32:28;27.10;59.40
9913;DHT22;41380;52.548;13.344;2022-08-02T12:35:07;27.20;59.50
9913;DHT22;41380;52.548;13.344;2022-08-02T12:37:35;27.30;59.00
9913;DHT22;41380;52.548;13.344;2022-08-02T12:40:23;27.30;58.20
9913;DHT22;41380;52.548;13.344;2022-08-02T12:42:55;27.30;59.00
9913;DHT22;41380;52.548;13.344;2022-08-02T12:45:24;27.30;58.50
9913;DHT22;41380;52.548;13.344;2022-08-02T12:47:53;27.40;58.50
9913;DHT22;41380;52.548;13.344;2022-08-02T12:50:24;27.50;59.30
9913;DHT22;41380;52.548;13.344;2022-08-02T12:53:02;27.60;59.20
9913;DHT22;41380;52.548;13.344;2022-08-02T12:55:29;27.70;57.90
9913;DHT22;41380;52.548;13.344;2022-08-02T12:58:00;27.80;57.30
9913;DHT22;41380;52.548;13.344;2022-08-02T13:00:28;27.80;57.20
9913;DHT22;41380;52.548;13.344;2022-08-02T13:02:56;27.90;56.20
9913;DHT22;41380;52.548;13.344;2022-08-02T13:05:24;27.90;53.90
9913;DHT22;41380;52.548;13.344;2022-08-02T13:07:51;27.80;55.60
9913;DHT22;41380;52.548;13.344;2022-08-02T13:10:19;27.70;55.40
9913;DHT22;41380;52.548;13.344;2022-08-02T13:12:46;27.70;54.70
9913;DHT22;41380;52.548;13.344;2022-08-02T13:15:18;27.80;55.40
9913;DHT22;41380;52.548;13.344;2022-08-02T13:17:45;27.80;56.00
9913;DHT22;41380;52.548;13.344;2022-08-02T13:20:13;27.80;56.00
9913;DHT22;41380;52.548;13.344;2022-08-02T13:22:40;27.90;56.20
9913;DHT22;41380;52.548;13.344;2022-08-02T13:25:08;27.90;56.30
9913;DHT22;41380;52.548;13.344;2022-08-02T13:27:35;28.00;56.40
9913;DHT22;41380;52.548;13.344;2022-08-02T13:30:04;28.10;55.70
9913;DHT22;41380;52.548;13.344;2022-08-02T13:32:35;28.20;55.60
9913;DHT22;41380;52.548;13.344;2022-08-02T13:35:02;28.30;54.60
9913;DHT22;41380;52.548;13.344;2022-08-02T13:37:29;28.30;54.70
9913;DHT22;41380;52.548;13.344;2022-08-02T13:39:56;28.40;55.40
9913;DHT22;41380;52.548;13.344;2022-08-02T13:42:23;28.60;55.60
9913;DHT22;41380;52.548;13.344;2022-08-02T13:44:50;28.70;55.30
9913;DHT22;41380;52.548;13.344;2022-08-02T13:47:17;28.70;55.00
9913;DHT22;41380;52.548;13.344;2022-08-02T13:49:45;28.80;54.00
9913;DHT22;41380;52.548;13.344;2022-08-02T13:52:12;28.90;54.40
9913;DHT22;41380;52.548;13.344;2022-08-02T13:54:39;28.80;53.80
9913;DHT22;41380;52.548;13.344;2022-08-02T13:57:06;28.80;53.70
9913;DHT22;41380;52.548;13.344;2022-08-02T13:59:33;28.90;54.00
9913;DHT22;41380;52.548;13.344;2022-08-02T14:02:00;28.90;54.10
9913;DHT22;41380;52.548;13.344;2022-08-02T14:04:27;29.00;53.50
9913;DHT22;41380;52.548;13.344;2022-08-02T14:06:56;29.10;53.70
9913;DHT22;41380;52.548;13.344;2022-08-02T14:09:24;29.20;53.70
9913;DHT22;41380;52.548;13.344;2022-08-02T14:11:51;29.30;53.70
9913;DHT22;41380;52.548;13.344;2022-08-02T14:14:18;29.30;53.90
9913;DHT22;41380;52.548;13.344;2022-08-02T14:16:45;29.50;53.40
9913;DHT22;41380;52.548;13.344;2022-08-02T14:19:12;29.50;52.80
9913;DHT22;41380;52.548;13.344;2022-08-02T14:21:39;29.60;53.00
9913;DHT22;41380;52.548;13.344;2022-08-02T14:24:08;29.60;52.30
9913;DHT22;41380;52.548;13.344;2022-08-02T14:26:35;29.70;52.60
9913;DHT22;41380;52.548;13.344;2022-08-02T14:29:02;29.70;53.30
9913;DHT22;41380;52.548;13.344;2022-08-02T14:31:29;29.60;53.70
9913;DHT22;41380;52.548;13.344;2022-08-02T14:33:56;29.60;54.10
9913;DHT22;41380;52.548;13.344;2022-08-02T14:36:23;29.50;53.90
9913;DHT22;41380;52.548;13.344;2022-08-02T14:38:50;29.50;54.10
9913;DHT22;41380;52.548;13.344;2022-08-02T14:41:18;29.60;54.00
9913;DHT22;41380;52.548;13.344;2022-08-02T14:43:45;29.70;54.00
9913;DHT22;41380;52.548;13.344;2022-08-02T14:46:30;29.80;53.80
9913;DHT22;41380;52.548;13.344;2022-08-02T14:48:58;29.80;53.60
9913;DHT22;41380;52.548;13.344;2022-08-02T14:51:28;30.00;53.70
9913;DHT22;41380;52.548;13.344;2022-08-02T14:53:55;30.10;53.50
9913;DHT22;41380;52.548;13.344;2022-08-02T14:56:23;30.20;52.90
9913;DHT22;41380;52.548;13.344;2022-08-02T14:58:52;30.40;52.90
9913;DHT22;41380;52.548;13.344;2022-08-02T15:01:19;30.40;52.80
9913;DHT22;41380;52.548;13.344;2022-08-02T15:03:46;30.30;52.60
9913;DHT22;41380;52.548;13.344;2022-08-02T15:06:13;30.30;53.30
9913;DHT22;41380;52.548;13.344;2022-08-02T15:08:40;30.20;53.50
9913;DHT22;41380;52.548;13.344;2022-08-02T15:11:07;30.20;53.50
9913;DHT22;41380;52.548;13.344;2022-08-02T15:13:36;30.20;52.50
9913;DHT22;41380;52.548;13.344;2022-08-02T15:16:03;30.10;52.70
9913;DHT22;41380;52.548;13.344;2022-08-02T15:18:31;30.10;53.30
9913;DHT22;41380;52.548;13.344;2022-08-02T15:20:58;30.20;53.20
9913;DHT22;41380;52.548;13.344;2022-08-02T15:23:25;30.20;53.30
9913;DHT22;41380;52.548;13.344;2022-08-02T15:25:53;30.20;52.80
9913;DHT22;41380;52.548;13.344;2022-08-02T15:28:20;30.20;53.00
9913;DHT22;41380;52.548;13.344;2022-08-02T15:30:48;30.10;53.40
9913;DHT22;41380;52.548;13.344;2022-08-02T15:33:15;30.20;53.60
9913;DHT22;41380;52.548;13.344;2022-08-02T15:35:42;30.20;53.70
9913;DHT22;41380;52.548;13.344;2022-08-02T15:38:09;30.30;53.50
9913;DHT22;41380;52.548;13.344;2022-08-02T15:40:36;30.20;53.10
9913;DHT22;41380;52.548;13.344;2022-08-02T15:43:03;30.20;53.40